Time;durP1;ratioP1;P1;durP2;ratioP2;P2;SDS_P1;SDS_P2;PMS_P1;PMS_P2;Temp;Humidity;BMP_temperature;BMP_pressure;BME280_temperature;BME280_humidity;BME280_pressure;Samples;Min_cycle;Max_cycle;Signal;HPM_P1;HPM_P2
2022/12/13 00:02:36;;;;;;;22.87;20.33;;;0.00;94.90;;;;;;10522107;28;20728;-79
2022/12/13 00:07:39;;;;;;;22.83;20.40;;;0.00;95.60;;;;;;10569629;28;20225;-81
2022/12/13 00:12:41;;;;;;;23.90;21.50;;;0.00;95.30;;;;;;10542857;28;20232;-80
2022/12/13 00:17:45;;;;;;;25.40;21.03;;;-0.10;95.20;;;;;;10543786;28;20307;-79
2022/12/13 00:22:48;;;;;;;24.03;21.33;;;-0.10;95.10;;;;;;10549884;28;20330;-81
2022/12/13 00:27:50;;;;;;;25.33;22.73;;;-0.20;95.30;;;;;;10551012;28;20195;-80
2022/12/13 00:32:53;;;;;;;24.20;21.67;;;-0.20;95.30;;;;;;10523728;28;20364;-79
2022/12/13 00:37:56;;;;;;;22.83;20.53;;;-0.30;95.90;;;;;;10547599;28;20204;-82
2022/12/13 00:42:58;;;;;;;29.17;24.33;;;-0.30;96.00;;;;;;10542909;28;20230;-81
2022/12/13 00:48:02;;;;;;;27.50;22.50;;;-0.30;95.90;;;;;;10567023;28;20195;-79
2022/12/13 00:53:04;;;;;;;25.00;22.40;;;-0.30;95.70;;;;;;10557018;28;20234;-79
2022/12/13 00:58:06;;;;;;;27.13;24.30;;;-0.30;96.10;;;;;;10561160;28;20595;-81
2022/12/13 01:03:19;;;;;;;25.67;22.70;;;-0.30;95.30;;;;;;10546774;28;20218;-79
2022/12/13 01:08:22;;;;;;;26.60;22.30;;;-0.40;95.70;;;;;;10524786;28;20223;-80
2022/12/13 01:13:24;;;;;;;26.13;23.33;;;-0.40;95.50;;;;;;10530987;28;20318;-83
2022/12/13 01:18:27;;;;;;;26.23;23.50;;;-0.50;95.50;;;;;;10535294;28;20575;-81
2022/12/13 01:23:37;;;;;;;27.47;23.63;;;-0.50;96.20;;;;;;10550264;28;20222;-83
2022/12/13 01:28:39;;;;;;;28.00;23.60;;;-0.50;96.50;;;;;;10571748;28;20195;-84
2022/12/13 01:33:47;;;;;;;27.47;23.43;;;-0.50;96.20;;;;;;10532974;28;20662;-83
2022/12/13 01:38:51;;;;;;;26.60;23.47;;;-0.50;95.40;;;;;;10556686;28;20530;-82
2022/12/13 01:43:58;;;;;;;27.93;25.03;;;-0.60;96.10;;;;;;10536771;28;20228;-83
2022/12/13 01:49:12;;;;;;;28.40;25.10;;;-0.60;96.80;;;;;;10564135;28;20223;-82
2022/12/13 01:54:22;;;;;;;28.63;24.07;;;-0.60;95.90;;;;;;10547054;28;20315;-83
2022/12/13 01:59:28;;;;;;;28.77;22.43;;;-0.70;95.20;;;;;;10577764;28;20199;-83
2022/12/13 02:04:37;;;;;;;27.50;21.90;;;-0.80;96.00;;;;;;10552421;28;20216;-83
2022/12/13 02:09:43;;;;;;;30.33;22.77;;;-0.80;95.90;;;;;;10561412;28;20245;-83
2022/12/13 02:14:47;;;;;;;27.43;22.63;;;-0.90;96.20;;;;;;10554345;28;20692;-83
2022/12/13 02:20:25;;;;;;;25.07;22.43;;;-0.90;95.80;;;;;;10561795;28;20209;-83
2022/12/13 02:25:52;;;;;;;27.53;21.97;;;-0.90;95.90;;;;;;10533737;28;20631;-83
2022/12/13 02:31:03;;;;;;;26.77;21.73;;;-0.90;95.80;;;;;;10561257;28;20202;-83
2022/12/13 02:36:11;;;;;;;27.10;20.57;;;-0.90;96.00;;;;;;10531005;28;20227;-79
2022/12/13 02:41:22;;;;;;;24.87;21.80;;;-0.90;96.00;;;;;;10545071;28;20198;-79
2022/12/13 02:46:51;;;;;;;24.93;21.10;;;-0.90;96.20;;;;;;10502530;28;20576;-80
2022/12/13 02:51:57;;;;;;;26.30;22.20;;;-0.90;95.60;;;;;;10539143;28;20195;-81
2022/12/13 02:57:00;;;;;;;26.40;21.13;;;-0.90;95.40;;;;;;10505035;28;20208;-83
2022/12/13 03:02:19;;;;;;;29.80;20.57;;;-1.00;95.50;;;;;;10585896;28;20565;-81
2022/12/13 03:07:28;;;;;;;24.60;20.70;;;-1.10;95.40;;;;;;10514249;28;20572;-81
2022/12/13 03:18:03;;;;;;;23.63;21.13;;;-1.10;95.90;;;;;;10546470;28;20561;-81
2022/12/13 03:23:05;;;;;;;28.40;21.63;;;-1.20;95.90;;;;;;10559122;28;20761;-81
2022/12/13 03:28:08;;;;;;;25.10;21.43;;;-1.10;95.90;;;;;;10530907;28;20239;-81
2022/12/13 03:33:11;;;;;;;27.83;21.20;;;-1.10;95.80;;;;;;10590798;28;20552;-80
2022/12/13 03:38:15;;;;;;;24.10;21.60;;;-1.10;95.70;;;;;;10527710;28;20304;-81
2022/12/13 03:43:17;;;;;;;24.97;19.80;;;-1.20;95.50;;;;;;10560433;28;20708;-80
2022/12/13 03:48:21;;;;;;;26.70;21.47;;;-1.20;95.20;;;;;;10568464;28;20195;-79
2022/12/13 03:53:25;;;;;;;24.30;21.67;;;-1.20;95.60;;;;;;10546681;28;20248;-79
2022/12/13 03:58:27;;;;;;;22.80;19.87;;;-1.20;96.00;;;;;;10525333;28;20192;-80
2022/12/13 04:03:31;;;;;;;21.33;18.20;;;-1.20;96.50;;;;;;10551506;28;20227;-80
2022/12/13 04:08:34;;;;;;;20.23;18.23;;;-1.20;95.40;;;;;;10521894;28;20271;-83
2022/12/13 04:13:37;;;;;;;22.97;18.90;;;-1.20;95.50;;;;;;10523683;28;20234;-81
2022/12/13 04:18:40;;;;;;;22.77;20.37;;;-1.20;96.70;;;;;;10595310;28;20542;-80
2022/12/13 04:23:42;;;;;;;20.20;18.10;;;-1.20;96.00;;;;;;10585747;28;20713;-80
2022/12/13 04:28:45;;;;;;;23.00;19.90;;;-1.20;95.10;;;;;;10531871;28;20270;-78
2022/12/13 04:33:49;;;;;;;24.20;19.30;;;-1.20;95.60;;;;;;10534553;28;20246;-80
2022/12/13 04:38:51;;;;;;;21.17;18.27;;;-1.20;96.00;;;;;;10548088;28;20202;-78
2022/12/13 04:43:54;;;;;;;18.10;15.93;;;-1.30;94.70;;;;;;10542647;28;20702;-80
2022/12/13 04:48:58;;;;;;;20.10;18.00;;;-1.30;94.90;;;;;;10564727;28;20207;-81
2022/12/13 04:54:00;;;;;;;21.33;16.23;;;-1.30;95.40;;;;;;10566312;28;20222;-81
2022/12/13 04:59:05;;;;;;;19.07;16.97;;;-1.40;95.50;;;;;;10511055;28;20231;-80
2022/12/13 05:04:09;;;;;;;20.83;18.17;;;-1.30;95.60;;;;;;10581800;28;20229;-78
2022/12/13 05:09:11;;;;;;;18.03;16.17;;;-1.30;95.60;;;;;;10543551;28;20195;-80
2022/12/13 05:14:13;;;;;;;22.03;18.00;;;-1.30;95.70;;;;;;10526990;28;20228;-81
2022/12/13 05:19:16;;;;;;;18.60;16.80;;;-1.20;95.70;;;;;;10583423;28;20191;-80
2022/12/13 05:24:19;;;;;;;16.90;15.20;;;-1.30;94.50;;;;;;10528618;28;20212;-79
2022/12/13 05:29:21;;;;;;;19.90;16.50;;;-1.30;94.60;;;;;;10505262;28;20206;-79
2022/12/13 05:34:24;;;;;;;20.53;18.33;;;-1.40;94.70;;;;;;10557639;28;20230;-81
2022/12/13 05:39:27;;;;;;;21.23;18.37;;;-1.40;94.80;;;;;;10544691;28;20199;-78
2022/12/13 05:44:31;;;;;;;24.73;19.17;;;-1.40;94.70;;;;;;10537079;28;20276;-80
2022/12/13 05:49:34;;;;;;;19.43;15.70;;;-1.50;94.80;;;;;;10574491;28;20205;-79
2022/12/13 05:54:36;;;;;;;19.57;17.30;;;-1.50;94.80;;;;;;10569674;28;20802;-79
2022/12/13 05:59:38;;;;;;;18.17;16.20;;;-1.50;95.50;;;;;;10550807;28;20195;-78
2022/12/13 06:04:42;;;;;;;19.53;17.23;;;-1.40;95.60;;;;;;10544678;28;20220;-80
2022/12/13 06:09:44;;;;;;;21.23;17.30;;;-1.40;95.00;;;;;;10554831;28;20279;-80
2022/12/13 06:15:26;;;;;;;18.03;15.90;;;-1.40;94.30;;;;;;10569503;22;20244;-83
2022/12/13 06:26:39;;;;;;;19.63;17.07;;;-1.60;95.50;;;;;;10521788;28;20591;-81
2022/12/13 06:32:16;;;;;;;18.47;15.57;;;-1.50;95.60;;;;;;10574712;28;20793;-81
2022/12/13 06:37:31;;;;;;;19.13;16.60;;;-1.50;94.50;;;;;;10550169;28;20271;-82
2022/12/13 06:48:49;;;;;;;20.20;16.03;;;-1.60;94.90;;;;;;10538414;28;20295;-80
2022/12/13 07:16:28;;;;;;;;;;;;;;;;;;;;;
2022/12/13 07:28:41;;;;;;;19.10;16.10;;;-1.40;95.10;;;;;;10427491;28;20511;-84
2022/12/13 07:34:25;;;;;;;18.83;16.87;;;-1.40;95.40;;;;;;10551479;28;20257;-84
2022/12/13 07:39:55;;;;;;;24.13;17.10;;;-1.30;95.00;;;;;;10563593;28;20207;-81
2022/12/13 07:45:23;;;;;;;25.27;18.17;;;-1.30;95.40;;;;;;10588647;28;20231;-84
2022/12/13 07:50:47;;;;;;;24.03;17.60;;;-1.30;95.30;;;;;;10556230;28;20248;-84
2022/12/13 08:16:56;;;;;;;20.23;17.20;;;-1.10;94.70;;;;;;10539189;28;20365;-84
2022/12/13 08:22:44;;;;;;;21.70;18.90;;;-1.10;95.90;;;;;;10379283;28;20234;-83
2022/12/13 08:33:32;;;;;;;22.27;18.53;;;-0.90;94.90;;;;;;10382136;28;20286;-80
2022/12/13 08:39:03;;;;;;;22.83;19.77;;;-0.80;95.50;;;;;;10563312;28;20217;-80
2022/12/13 08:44:06;;;;;;;25.60;20.73;;;-0.70;96.00;;;;;;10575378;28;20212;-83
2022/12/13 08:56:17;;;;;;;;;;;;;;;;;;;;;
2022/12/13 09:12:44;;;;;;;27.93;22.33;;;0.00;95.90;;;;;;10573451;28;20205;-80
2022/12/13 09:17:56;;;;;;;27.63;22.73;;;0.10;95.80;;;;;;10523929;28;20219;-81
2022/12/13 09:23:30;;;;;;;33.93;22.10;;;0.30;95.80;;;;;;10501385;28;20223;-80
2022/12/13 09:28:44;;;;;;;25.17;20.87;;;0.50;96.00;;;;;;10518406;28;20232;-81
2022/12/13 09:34:02;;;;;;;22.80;19.40;;;0.60;95.60;;;;;;10538007;28;20316;-81
2022/12/13 09:39:46;;;;;;;22.20;19.27;;;0.70;95.50;;;;;;10479899;28;20203;-79
2022/12/13 09:46:11;;;;;;;27.30;21.00;;;0.80;95.10;;;;;;10496722;28;20581;-82
2022/12/13 09:58:17;;;;;;;20.93;18.57;;;1.00;94.40;;;;;;10447651;28;20752;-80
2022/12/13 10:10:11;;;;;;;22.97;18.53;;;1.10;92.90;;;;;;10250872;28;20581;-80
2022/12/13 10:20:47;;;;;;;25.80;19.87;;;1.10;93.30;;;;;;10312059;28;20213;-83
2022/12/13 10:25:54;;;;;;;26.60;19.40;;;1.20;94.20;;;;;;10362850;28;20238;-83
2022/12/13 10:31:00;;;;;;;23.40;19.27;;;1.20;94.00;;;;;;10413724;28;20647;-81
2022/12/13 10:37:21;;;;;;;24.53;18.80;;;1.30;94.10;;;;;;10438454;28;20213;-83
2022/12/13 10:43:21;;;;;;;21.20;18.30;;;1.30;93.40;;;;;;10431672;28;20264;-83
2022/12/13 10:49:09;;;;;;;22.27;17.53;;;1.40;93.80;;;;;;10425138;28;20346;-84
2022/12/13 11:00:54;;;;;;;20.37;17.97;;;1.50;92.20;;;;;;10448614;28;20197;-84
2022/12/13 11:12:43;;;;;;;23.33;18.30;;;1.60;94.00;;;;;;10243616;28;20356;-83
2022/12/13 11:24:00;;;;;;;20.53;16.93;;;1.80;91.90;;;;;;10375525;28;20276;-84
2022/12/13 11:35:42;;;;;;;23.87;17.20;;;1.90;92.60;;;;;;10350999;28;20689;-84
2022/12/13 11:40:49;;;;;;;21.20;15.40;;;2.00;91.50;;;;;;10431124;28;20198;-84
2022/12/13 11:45:55;;;;;;;22.87;17.97;;;2.10;93.00;;;;;;10436455;28;20241;-84
2022/12/13 11:51:19;;;;;;;23.03;17.50;;;2.10;92.30;;;;;;10442498;28;20355;-84
2022/12/13 12:02:10;;;;;;;22.40;16.30;;;2.30;92.90;;;;;;10388624;28;20193;-80
2022/12/13 12:07:50;;;;;;;21.13;17.03;;;2.30;91.30;;;;;;10442183;28;20231;-80
2022/12/13 12:13:38;;;;;;;22.80;15.93;;;2.30;92.20;;;;;;10447946;28;20229;-80
2022/12/13 12:19:06;;;;;;;18.70;14.67;;;2.30;91.70;;;;;;10417782;28;20193;-81
2022/12/13 12:24:44;;;;;;;23.27;16.20;;;2.40;92.20;;;;;;10422190;28;20240;-80
2022/12/13 12:30:09;;;;;;;20.80;16.77;;;2.40;92.60;;;;;;10458026;28;20452;-84
2022/12/13 12:35:50;;;;;;;21.63;16.37;;;2.40;91.80;;;;;;10436077;28;20285;-85
2022/12/13 12:41:22;;;;;;;19.20;17.20;;;2.50;91.70;;;;;;10421040;28;20224;-82
2022/12/13 12:46:41;;;;;;;23.93;18.30;;;2.50;92.80;;;;;;10413898;28;20261;-82
2022/12/13 12:51:53;;;;;;;27.03;16.97;;;2.60;93.00;;;;;;10419455;28;20570;-85
2022/12/13 12:57:06;;;;;;;20.67;17.00;;;2.70;93.30;;;;;;10427678;28;20233;-85
2022/12/13 13:02:19;;;;;;;23.13;16.80;;;2.70;92.80;;;;;;10418424;28;20208;-85
2022/12/13 13:07:27;;;;;;;19.57;16.97;;;2.70;93.20;;;;;;10466678;28;20225;-85
2022/12/13 13:12:37;;;;;;;23.63;16.90;;;2.70;93.00;;;;;;10392293;28;20198;-84
2022/12/13 13:17:47;;;;;;;22.30;16.50;;;2.80;93.70;;;;;;10517801;22;20704;-83
2022/12/13 13:22:50;;;;;;;22.93;16.20;;;2.90;93.40;;;;;;10453345;28;20224;-83
2022/12/13 13:28:02;;;;;;;18.60;16.50;;;2.90;92.80;;;;;;10512165;28;20303;-83
2022/12/13 13:33:39;;;;;;;19.43;16.80;;;3.00;91.60;;;;;;10456888;28;20201;-80
2022/12/13 13:38:52;;;;;;;21.10;16.33;;;3.00;92.00;;;;;;10499078;28;20196;-82
2022/12/13 13:43:55;;;;;;;21.10;16.07;;;3.00;91.70;;;;;;10512779;28;20707;-83
2022/12/13 13:49:03;;;;;;;17.57;14.90;;;3.00;91.20;;;;;;10469619;28;20219;-81
2022/12/13 13:54:28;;;;;;;24.40;14.50;;;3.00;92.00;;;;;;10480990;28;20304;-82
2022/12/13 14:00:01;;;;;;;18.97;13.20;;;3.10;92.50;;;;;;10473341;28;20204;-81
2022/12/13 14:05:38;;;;;;;19.57;14.73;;;3.10;91.60;;;;;;10470822;28;20782;-81
2022/12/13 14:10:50;;;;;;;15.90;13.70;;;3.20;89.30;;;;;;10466913;28;20197;-83
2022/12/13 14:16:33;;;;;;;18.10;14.23;;;3.10;91.30;;;;;;10487822;28;20213;-83
2022/12/13 14:21:44;;;;;;;17.10;13.50;;;3.10;92.20;;;;;;10486880;28;20192;-83
2022/12/13 14:27:10;;;;;;;18.03;13.40;;;3.20;92.20;;;;;;10486081;28;20274;-83
2022/12/13 14:32:22;;;;;;;16.60;13.90;;;3.20;91.50;;;;;;10473293;28;20283;-82
2022/12/13 14:37:27;;;;;;;24.13;13.47;;;3.20;91.60;;;;;;10488379;28;20224;-82
2022/12/13 14:42:32;;;;;;;15.60;12.97;;;3.10;91.70;;;;;;10485268;28;20196;-82
2022/12/13 14:47:39;;;;;;;18.53;14.00;;;3.20;91.40;;;;;;10485237;28;20236;-81
2022/12/13 14:52:43;;;;;;;16.53;14.00;;;3.20;92.40;;;;;;10469634;28;20204;-82
2022/12/13 14:57:52;;;;;;;21.40;13.70;;;3.20;92.30;;;;;;10493014;28;20243;-83
2022/12/13 15:02:59;;;;;;;20.87;14.43;;;3.30;92.50;;;;;;10494104;28;20583;-83
2022/12/13 15:08:01;;;;;;;15.60;13.27;;;3.30;92.80;;;;;;10493352;28;20648;-82
2022/12/13 15:13:04;;;;;;;16.87;13.20;;;3.30;92.30;;;;;;10477888;28;20203;-83
2022/12/13 15:18:17;;;;;;;16.53;12.97;;;3.20;91.90;;;;;;10477758;28;20663;-83
2022/12/13 15:23:27;;;;;;;17.10;13.00;;;3.20;92.20;;;;;;10496658;28;20234;-83
2022/12/13 15:28:39;;;;;;;18.63;13.20;;;3.30;92.10;;;;;;10514736;28;20208;-83
2022/12/13 15:33:43;;;;;;;18.97;15.20;;;3.30;92.30;;;;;;10481394;28;20284;-83
2022/12/13 15:38:58;;;;;;;17.57;13.17;;;3.30;92.10;;;;;;10524279;28;20197;-82
2022/12/13 15:44:05;;;;;;;15.20;13.50;;;3.20;91.30;;;;;;10498489;28;20289;-81
2022/12/13 15:49:24;;;;;;;14.97;13.27;;;3.20;91.30;;;;;;10476418;28;20615;-83
2022/12/13 15:54:27;;;;;;;14.53;12.40;;;3.20;91.60;;;;;;10491699;28;20228;-83
2022/12/13 15:59:31;;;;;;;16.40;12.23;;;3.20;91.80;;;;;;10472329;28;20524;-83
2022/12/13 16:04:34;;;;;;;20.43;13.60;;;3.10;91.60;;;;;;10490825;28;20221;-83
2022/12/13 16:09:38;;;;;;;18.10;14.80;;;3.10;91.00;;;;;;10492669;28;20217;-83
2022/12/13 16:14:45;;;;;;;19.83;13.53;;;3.10;91.30;;;;;;10489247;28;20290;-83
2022/12/13 16:19:48;;;;;;;14.03;12.40;;;3.10;91.70;;;;;;10492175;28;20226;-83
2022/12/13 16:24:52;;;;;;;22.80;16.60;;;3.10;91.60;;;;;;10488589;28;20243;-82
2022/12/13 16:29:54;;;;;;;16.23;14.20;;;3.10;91.90;;;;;;10474428;28;20236;-83
2022/12/13 16:34:58;;;;;;;17.00;14.07;;;3.10;92.00;;;;;;10491280;28;20227;-83
2022/12/13 16:40:01;;;;;;;21.43;13.30;;;3.00;91.80;;;;;;10475820;28;20288;-83
2022/12/13 16:45:05;;;;;;;14.80;13.20;;;3.10;91.90;;;;;;10474892;28;20232;-82
2022/12/13 16:50:13;;;;;;;16.60;14.03;;;3.10;91.40;;;;;;10486176;28;20197;-83
2022/12/13 16:55:15;;;;;;;18.00;15.90;;;3.10;91.20;;;;;;10491707;28;20231;-82
2022/12/13 17:00:19;;;;;;;17.33;15.23;;;3.10;91.70;;;;;;10474928;28;20197;-83
2022/12/13 17:05:22;;;;;;;18.20;14.43;;;3.10;91.90;;;;;;10473213;28;20220;-82
2022/12/13 17:10:24;;;;;;;18.77;14.93;;;3.10;91.50;;;;;;10472850;28;20260;-81
2022/12/13 17:15:27;;;;;;;19.80;15.33;;;3.00;91.50;;;;;;10469291;28;20305;-81
2022/12/13 17:20:30;;;;;;;20.47;16.00;;;3.00;90.30;;;;;;10489928;28;20644;-82
2022/12/13 17:25:32;;;;;;;20.20;14.53;;;2.90;91.60;;;;;;10490212;28;20212;-83
2022/12/13 17:30:35;;;;;;;20.67;15.40;;;2.90;90.80;;;;;;10489100;28;20254;-81
2022/12/13 17:35:40;;;;;;;17.37;15.30;;;2.90;91.30;;;;;;10471428;28;20224;-83
2022/12/13 17:40:42;;;;;;;20.40;18.30;;;2.80;91.40;;;;;;10510281;28;20232;-83
2022/12/13 17:45:44;;;;;;;15.90;13.60;;;2.80;90.40;;;;;;10489060;28;20220;-82
2022/12/13 17:50:48;;;;;;;16.03;14.10;;;2.80;86.40;;;;;;10505673;28;20620;-82
2022/12/13 17:55:57;;;;;;;19.90;14.57;;;2.70;89.50;;;;;;10477750;28;20562;-83
2022/12/13 18:01:09;;;;;;;14.43;12.63;;;2.60;90.20;;;;;;10511766;28;20599;-83
2022/12/13 18:06:12;;;;;;;13.87;12.47;;;2.60;90.20;;;;;;10492380;28;20242;-83
2022/12/13 18:11:16;;;;;;;15.37;13.33;;;2.60;89.70;;;;;;10479289;28;20215;-82
2022/12/13 18:16:19;;;;;;;15.00;13.03;;;2.60;86.30;;;;;;10494165;28;20285;-81
2022/12/13 18:21:24;;;;;;;17.60;14.63;;;2.50;90.70;;;;;;10492738;28;20208;-82
2022/12/13 18:26:26;;;;;;;15.73;13.60;;;2.40;85.90;;;;;;10486884;28;20220;-85
2022/12/13 18:31:28;;;;;;;17.53;15.73;;;2.30;87.00;;;;;;10486690;28;20210;-84
2022/12/13 18:36:31;;;;;;;17.43;14.70;;;2.30;89.40;;;;;;10471152;28;20208;-85
2022/12/13 18:41:34;;;;;;;17.90;14.20;;;2.30;88.50;;;;;;10486186;28;20208;-84
2022/12/13 18:46:38;;;;;;;17.70;15.80;;;2.20;89.10;;;;;;10475285;28;20727;-83
2022/12/13 18:51:41;;;;;;;17.60;14.57;;;2.20;90.70;;;;;;10461417;28;20288;-84
2022/12/13 18:56:43;;;;;;;18.93;14.77;;;2.30;90.40;;;;;;10474741;28;20251;-84
2022/12/13 19:01:45;;;;;;;18.13;15.50;;;2.20;90.00;;;;;;10466625;28;20634;-83
2022/12/13 19:06:49;;;;;;;19.67;16.27;;;2.20;90.20;;;;;;10490052;28;20220;-82
2022/12/13 19:11:51;;;;;;;21.03;14.77;;;2.30;90.30;;;;;;10469427;28;20494;-82
2022/12/13 19:16:53;;;;;;;18.53;16.40;;;2.30;90.00;;;;;;10485882;23;20232;-81
2022/12/13 19:21:57;;;;;;;19.57;16.53;;;2.30;88.90;;;;;;10423084;28;20585;-81
2022/12/13 19:26:59;;;;;;;16.70;13.87;;;2.30;90.10;;;;;;10424646;28;20323;-81
2022/12/13 19:32:01;;;;;;;20.80;15.23;;;2.30;90.00;;;;;;10476064;28;20204;-80
2022/12/13 19:37:04;;;;;;;17.63;15.27;;;2.30;88.00;;;;;;10447459;28;20224;-81
2022/12/13 19:42:06;;;;;;;22.83;15.90;;;2.20;90.50;;;;;;10445464;28;20237;-81
2022/12/13 19:47:09;;;;;;;16.80;14.60;;;2.20;90.50;;;;;;10481985;28;20751;-81
2022/12/13 19:52:13;;;;;;;18.63;14.50;;;2.30;90.70;;;;;;10443090;28;20197;-81
2022/12/13 19:57:15;;;;;;;28.30;20.93;;;2.30;88.90;;;;;;10469391;28;20221;-81
2022/12/13 20:02:18;;;;;;;22.40;17.70;;;2.20;91.20;;;;;;10480416;28;20262;-81
2022/12/13 20:07:22;;;;;;;18.93;16.67;;;2.30;91.50;;;;;;10454511;28;20275;-81
2022/12/13 20:12:24;;;;;;;16.23;14.50;;;2.30;90.80;;;;;;10477883;28;20209;-81
2022/12/13 20:17:26;;;;;;;18.03;15.37;;;2.20;90.00;;;;;;10471833;28;20229;-81
2022/12/13 20:22:30;;;;;;;18.23;16.10;;;2.20;91.20;;;;;;10448232;28;20304;-80
2022/12/13 20:27:32;;;;;;;18.23;16.30;;;2.20;91.40;;;;;;10437215;28;20225;-81
2022/12/13 20:32:34;;;;;;;18.73;16.80;;;2.30;90.80;;;;;;10472212;28;20205;-81
2022/12/13 20:37:38;;;;;;;17.40;15.50;;;2.30;91.60;;;;;;10469443;28;20225;-81
2022/12/13 20:42:40;;;;;;;19.97;15.10;;;2.30;89.60;;;;;;10447859;28;20603;-80
2022/12/13 20:47:42;;;;;;;20.60;16.83;;;2.20;91.00;;;;;;10465839;28;20308;-81
2022/12/13 20:52:46;;;;;;;18.63;16.63;;;2.30;92.00;;;;;;10446761;28;20279;-80
2022/12/13 20:57:48;;;;;;;18.60;16.10;;;2.30;91.90;;;;;;10473095;28;20233;-80
2022/12/13 21:02:50;;;;;;;19.23;16.13;;;2.40;91.90;;;;;;10453172;28;20220;-81
2022/12/13 21:13:13;;;;;;;19.83;17.27;;;2.40;91.30;;;;;;10442344;28;20205;-81
2022/12/13 21:18:15;;;;;;;19.70;16.60;;;2.40;91.70;;;;;;10451744;28;20308;-81
2022/12/13 21:23:21;;;;;;;21.43;17.10;;;2.50;91.60;;;;;;10442252;28;20265;-81
2022/12/13 21:28:24;;;;;;;17.80;15.87;;;2.50;91.20;;;;;;10464021;28;20225;-81
2022/12/13 21:33:26;;;;;;;18.20;15.50;;;2.50;90.90;;;;;;10471329;28;20223;-80
2022/12/13 21:38:29;;;;;;;18.70;16.63;;;2.50;90.60;;;;;;10465895;28;20193;-81
2022/12/13 21:43:40;;;;;;;16.30;14.70;;;2.50;91.30;;;;;;10430933;28;20216;-81
2022/12/13 21:48:49;;;;;;;17.93;16.13;;;2.50;91.60;;;;;;10432338;28;20313;-80
2022/12/13 21:53:53;;;;;;;19.50;16.87;;;2.50;91.60;;;;;;10456359;28;20253;-80
2022/12/13 21:59:17;;;;;;;19.50;16.83;;;2.50;91.30;;;;;;10438055;28;20744;-80
2022/12/13 22:04:21;;;;;;;18.10;16.13;;;2.50;91.10;;;;;;10471551;28;20226;-79
2022/12/13 22:09:24;;;;;;;19.03;15.90;;;2.50;91.10;;;;;;10462240;28;20304;-79
2022/12/13 22:14:27;;;;;;;19.60;17.60;;;2.50;91.10;;;;;;10456902;28;20227;-80
2022/12/13 22:19:29;;;;;;;19.97;17.10;;;2.40;91.00;;;;;;10465198;28;20204;-80
2022/12/13 22:24:32;;;;;;;18.87;15.33;;;2.50;90.90;;;;;;10467693;28;20224;-80
2022/12/13 22:29:34;;;;;;;21.27;17.53;;;2.50;90.00;;;;;;10451323;28;20294;-81
2022/12/13 22:34:36;;;;;;;22.60;18.20;;;2.50;90.20;;;;;;10469381;28;20367;-79
2022/12/13 22:39:40;;;;;;;20.70;18.40;;;2.40;91.30;;;;;;10457303;28;20205;-80
2022/12/13 22:44:42;;;;;;;18.00;15.17;;;2.50;91.60;;;;;;10466853;28;20220;-80
2022/12/13 22:49:45;;;;;;;21.53;15.90;;;2.50;91.50;;;;;;10464913;28;20303;-80
2022/12/13 22:54:48;;;;;;;23.00;17.87;;;2.50;89.80;;;;;;10469986;28;20227;-81
2022/12/13 22:59:50;;;;;;;15.60;14.00;;;2.50;90.80;;;;;;10467404;28;20236;-82
2022/12/13 23:04:52;;;;;;;16.80;14.70;;;2.50;90.20;;;;;;10464106;28;20225;-81
2022/12/13 23:09:56;;;;;;;18.30;16.03;;;2.40;90.30;;;;;;10445929;28;20233;-81
2022/12/13 23:14:58;;;;;;;15.53;13.93;;;2.40;90.30;;;;;;10461558;28;20316;-80
2022/12/13 23:20:00;;;;;;;15.80;14.20;;;2.40;90.40;;;;;;10468713;28;20207;-80
2022/12/13 23:25:04;;;;;;;17.73;15.47;;;2.50;91.10;;;;;;10471857;28;20251;-81
2022/12/13 23:30:07;;;;;;;18.93;16.00;;;2.50;89.40;;;;;;10481945;28;20282;-82
2022/12/13 23:35:11;;;;;;;19.17;15.80;;;2.40;90.00;;;;;;10501370;28;20228;-81
2022/12/13 23:40:16;;;;;;;15.90;14.10;;;2.40;90.00;;;;;;10483021;28;20201;-81
2022/12/13 23:45:18;;;;;;;18.03;15.50;;;2.40;91.50;;;;;;10478563;28;20212;-81
2022/12/13 23:50:20;;;;;;;16.40;14.70;;;2.40;91.10;;;;;;10490731;28;20240;-80
2022/12/13 23:55:23;;;;;;;17.23;14.80;;;2.50;90.80;;;;;;10477945;28;20749;-81
